sensor_id;sensor_type;location;lat;lon;timestamp;pressure;altitude;pressure_sealevel;temperature
27715;BMP280;16051;53.024;8.630;2022-09-29T00:03:08;99934.47;;;7.10
27715;BMP280;16051;53.024;8.630;2022-09-29T00:07:10;99925.22;;;6.99
27715;BMP280;16051;53.024;8.630;2022-09-29T00:11:16;99931.97;;;6.88
27715;BMP280;16051;53.024;8.630;2022-09-29T00:15:20;99927.31;;;6.80
27715;BMP280;16051;53.024;8.630;2022-09-29T00:19:38;99932.78;;;6.80
27715;BMP280;16051;53.024;8.630;2022-09-29T00:23:41;99925.00;;;6.78
27715;BMP280;16051;53.024;8.630;2022-09-29T00:27:43;99922.28;;;6.69
27715;BMP280;16051;53.024;8.630;2022-09-29T00:31:47;99921.56;;;6.60
27715;BMP280;16051;53.024;8.630;2022-09-29T00:35:57;99926.44;;;6.65
27715;BMP280;16051;53.024;8.630;2022-09-29T00:40:02;99922.03;;;6.58
27715;BMP280;16051;53.024;8.630;2022-09-29T00:44:51;99924.47;;;6.56
27715;BMP280;16051;53.024;8.630;2022-09-29T00:48:32;99928.75;;;6.57
27715;BMP280;16051;53.024;8.630;2022-09-29T00:52:38;99924.19;;;6.54
27715;BMP280;16051;53.024;8.630;2022-09-29T00:56:44;99921.31;;;6.49
27715;BMP280;16051;53.024;8.630;2022-09-29T01:00:47;99921.47;;;6.45
27715;BMP280;16051;53.024;8.630;2022-09-29T01:04:54;99932.16;;;6.43
27715;BMP280;16051;53.024;8.630;2022-09-29T01:09:00;99929.84;;;6.41
27715;BMP280;16051;53.024;8.630;2022-09-29T01:13:03;99921.03;;;6.37
27715;BMP280;16051;53.024;8.630;2022-09-29T01:17:06;99928.81;;;6.39
27715;BMP280;16051;53.024;8.630;2022-09-29T01:21:16;99931.53;;;6.39
27715;BMP280;16051;53.024;8.630;2022-09-29T01:26:02;99935.06;;;6.30
27715;BMP280;16051;53.024;8.630;2022-09-29T01:30:18;99932.78;;;6.29
27715;BMP280;16051;53.024;8.630;2022-09-29T01:34:33;99929.13;;;6.32
27715;BMP280;16051;53.024;8.630;2022-09-29T01:38:51;99924.84;;;6.31
27715;BMP280;16051;53.024;8.630;2022-09-29T01:43:03;99934.00;;;6.28
27715;BMP280;16051;53.024;8.630;2022-09-29T01:47:11;99939.94;;;6.26
27715;BMP280;16051;53.024;8.630;2022-09-29T01:51:20;99938.13;;;6.23
27715;BMP280;16051;53.024;8.630;2022-09-29T01:55:29;99931.41;;;6.24
27715;BMP280;16051;53.024;8.630;2022-09-29T01:59:54;99939.50;;;6.19
27715;BMP280;16051;53.024;8.630;2022-09-29T02:04:03;99945.13;;;6.15
27715;BMP280;16051;53.024;8.630;2022-09-29T02:08:12;99949.09;;;6.14
27715;BMP280;16051;53.024;8.630;2022-09-29T02:12:21;99945.91;;;6.16
27715;BMP280;16051;53.024;8.630;2022-09-29T02:16:28;99943.31;;;6.12
27715;BMP280;16051;53.024;8.630;2022-09-29T02:20:31;99936.00;;;6.09
27715;BMP280;16051;53.024;8.630;2022-09-29T02:24:35;99946.69;;;6.07
27715;BMP280;16051;53.024;8.630;2022-09-29T02:28:38;99943.19;;;6.07
27715;BMP280;16051;53.024;8.630;2022-09-29T02:32:40;99936.00;;;6.09
27715;BMP280;16051;53.024;8.630;2022-09-29T02:36:56;99936.16;;;6.06
27715;BMP280;16051;53.024;8.630;2022-09-29T02:41:09;99937.09;;;6.03
27715;BMP280;16051;53.024;8.630;2022-09-29T02:45:40;99947.59;;;5.95
27715;BMP280;16051;53.024;8.630;2022-09-29T02:50:07;99952.78;;;5.93
27715;BMP280;16051;53.024;8.630;2022-09-29T02:54:33;99940.88;;;5.87
27715;BMP280;16051;53.024;8.630;2022-09-29T02:58:49;99952.47;;;5.91
27715;BMP280;16051;53.024;8.630;2022-09-29T03:02:52;99950.34;;;5.86
27715;BMP280;16051;53.024;8.630;2022-09-29T03:07:14;99957.66;;;5.89
27715;BMP280;16051;53.024;8.630;2022-09-29T03:11:16;99953.22;;;5.91
27715;BMP280;16051;53.024;8.630;2022-09-29T03:15:20;99953.81;;;5.86
27715;BMP280;16051;53.024;8.630;2022-09-29T03:19:22;99959.75;;;5.85
27715;BMP280;16051;53.024;8.630;2022-09-29T03:23:24;99963.69;;;5.84
27715;BMP280;16051;53.024;8.630;2022-09-29T03:27:26;99958.38;;;5.80
27715;BMP280;16051;53.024;8.630;2022-09-29T03:31:30;99965.22;;;5.85
27715;BMP280;16051;53.024;8.630;2022-09-29T03:35:32;99966.88;;;5.82
27715;BMP280;16051;53.024;8.630;2022-09-29T03:39:35;99963.41;;;5.82
27715;BMP280;16051;53.024;8.630;2022-09-29T03:43:37;99969.03;;;5.78
27715;BMP280;16051;53.024;8.630;2022-09-29T03:47:40;99973.13;;;5.74
27715;BMP280;16051;53.024;8.630;2022-09-29T03:51:43;99971.75;;;5.69
27715;BMP280;16051;53.024;8.630;2022-09-29T03:55:46;99975.13;;;5.64
27715;BMP280;16051;53.024;8.630;2022-09-29T03:59:48;99967.03;;;5.61
27715;BMP280;16051;53.024;8.630;2022-09-29T04:03:52;99979.03;;;5.54
27715;BMP280;16051;53.024;8.630;2022-09-29T04:07:54;99969.91;;;5.48
27715;BMP280;16051;53.024;8.630;2022-09-29T04:11:56;99971.44;;;5.49
27715;BMP280;16051;53.024;8.630;2022-09-29T04:15:59;99974.78;;;5.53
27715;BMP280;16051;53.024;8.630;2022-09-29T04:20:26;99980.56;;;5.55
27715;BMP280;16051;53.024;8.630;2022-09-29T04:24:28;99986.66;;;5.59
27715;BMP280;16051;53.024;8.630;2022-09-29T04:28:33;99989.09;;;5.66
27715;BMP280;16051;53.024;8.630;2022-09-29T04:32:35;99992.91;;;5.69
27715;BMP280;16051;53.024;8.630;2022-09-29T04:36:39;99993.69;;;5.60
27715;BMP280;16051;53.024;8.630;2022-09-29T04:40:42;99994.88;;;5.59
27715;BMP280;16051;53.024;8.630;2022-09-29T04:44:44;99996.09;;;5.58
27715;BMP280;16051;53.024;8.630;2022-09-29T04:48:46;99994.88;;;5.59
27715;BMP280;16051;53.024;8.630;2022-09-29T04:52:50;99992.28;;;5.56
27715;BMP280;16051;53.024;8.630;2022-09-29T04:56:52;99988.50;;;5.53
27715;BMP280;16051;53.024;8.630;2022-09-29T05:01:25;99989.69;;;5.52
27715;BMP280;16051;53.024;8.630;2022-09-29T05:05:28;99990.13;;;5.51
27715;BMP280;16051;53.024;8.630;2022-09-29T05:09:31;99991.69;;;5.52
27715;BMP280;16051;53.024;8.630;2022-09-29T05:13:34;99991.22;;;5.53
27715;BMP280;16051;53.024;8.630;2022-09-29T05:17:36;99993.97;;;5.53
27715;BMP280;16051;53.024;8.630;2022-09-29T05:21:38;100006.44;;;5.54
27715;BMP280;16051;53.024;8.630;2022-09-29T05:25:41;100006.72;;;5.47
27715;BMP280;16051;53.024;8.630;2022-09-29T05:29:44;100005.94;;;5.46
27715;BMP280;16051;53.024;8.630;2022-09-29T05:33:46;100018.16;;;5.45
27715;BMP280;16051;53.024;8.630;2022-09-29T05:37:49;100019.97;;;5.49
27715;BMP280;16051;53.024;8.630;2022-09-29T05:41:52;100016.47;;;5.48
27715;BMP280;16051;53.024;8.630;2022-09-29T05:45:59;100008.41;;;5.44
27715;BMP280;16051;53.024;8.630;2022-09-29T05:50:01;100027.44;;;5.57
27715;BMP280;16051;53.024;8.630;2022-09-29T05:54:04;100021.81;;;5.61
27715;BMP280;16051;53.024;8.630;2022-09-29T05:58:07;100030.50;;;5.68
27715;BMP280;16051;53.024;8.630;2022-09-29T06:02:10;100028.72;;;5.74
27715;BMP280;16051;53.024;8.630;2022-09-29T06:06:17;100029.47;;;5.75
27715;BMP280;16051;53.024;8.630;2022-09-29T06:10:20;100028.84;;;5.71
27715;BMP280;16051;53.024;8.630;2022-09-29T06:14:23;100045.16;;;5.74
27715;BMP280;16051;53.024;8.630;2022-09-29T06:18:25;100043.63;;;5.73
27715;BMP280;16051;53.024;8.630;2022-09-29T06:22:28;100043.31;;;5.80
27715;BMP280;16051;53.024;8.630;2022-09-29T06:26:30;100044.59;;;5.88
27715;BMP280;16051;53.024;8.630;2022-09-29T06:30:33;100049.16;;;6.01
27715;BMP280;16051;53.024;8.630;2022-09-29T06:34:49;100051.31;;;6.15
27715;BMP280;16051;53.024;8.630;2022-09-29T06:39:11;100059.38;;;6.18
27715;BMP280;16051;53.024;8.630;2022-09-29T06:43:13;100061.97;;;6.31
27715;BMP280;16051;53.024;8.630;2022-09-29T06:47:17;100066.06;;;6.44
27715;BMP280;16051;53.024;8.630;2022-09-29T06:51:19;100066.25;;;6.50
27715;BMP280;16051;53.024;8.630;2022-09-29T06:55:23;100067.59;;;6.64
27715;BMP280;16051;53.024;8.630;2022-09-29T06:59:25;100069.09;;;6.74
27715;BMP280;16051;53.024;8.630;2022-09-29T07:03:29;100061.03;;;6.79
27715;BMP280;16051;53.024;8.630;2022-09-29T07:07:31;100060.22;;;6.97
27715;BMP280;16051;53.024;8.630;2022-09-29T07:11:33;100062.47;;;6.99
27715;BMP280;16051;53.024;8.630;2022-09-29T07:15:35;100062.91;;;7.15
27715;BMP280;16051;53.024;8.630;2022-09-29T07:19:39;100072.34;;;7.23
27715;BMP280;16051;53.024;8.630;2022-09-29T07:23:41;100079.75;;;7.32
27715;BMP280;16051;53.024;8.630;2022-09-29T07:27:43;100086.28;;;7.43
27715;BMP280;16051;53.024;8.630;2022-09-29T07:32:12;100084.25;;;7.53
27715;BMP280;16051;53.024;8.630;2022-09-29T07:36:18;100083.81;;;7.78
27715;BMP280;16051;53.024;8.630;2022-09-29T07:40:51;100089.97;;;7.97
27715;BMP280;16051;53.024;8.630;2022-09-29T07:44:54;100096.13;;;8.16
27715;BMP280;16051;53.024;8.630;2022-09-29T07:48:56;100099.72;;;8.22
27715;BMP280;16051;53.024;8.630;2022-09-29T07:52:59;100105.31;;;8.36
27715;BMP280;16051;53.024;8.630;2022-09-29T07:57:02;100105.03;;;8.34
27715;BMP280;16051;53.024;8.630;2022-09-29T08:01:06;100102.28;;;8.34
27715;BMP280;16051;53.024;8.630;2022-09-29T08:05:10;100107.66;;;8.53
27715;BMP280;16051;53.024;8.630;2022-09-29T08:09:14;100120.56;;;8.61
27715;BMP280;16051;53.024;8.630;2022-09-29T08:13:16;100122.19;;;8.68
27715;BMP280;16051;53.024;8.630;2022-09-29T08:17:19;100127.63;;;8.92
27715;BMP280;16051;53.024;8.630;2022-09-29T08:21:21;100131.81;;;9.02
27715;BMP280;16051;53.024;8.630;2022-09-29T08:25:27;100141.69;;;9.23
27715;BMP280;16051;53.024;8.630;2022-09-29T08:29:29;100141.88;;;9.34
27715;BMP280;16051;53.024;8.630;2022-09-29T08:33:32;100148.91;;;9.50
27715;BMP280;16051;53.024;8.630;2022-09-29T08:37:34;100150.88;;;9.64
27715;BMP280;16051;53.024;8.630;2022-09-29T08:41:50;100156.44;;;9.84
27715;BMP280;16051;53.024;8.630;2022-09-29T08:45:59;100151.03;;;9.89
27715;BMP280;16051;53.024;8.630;2022-09-29T08:50:11;100152.22;;;10.03
27715;BMP280;16051;53.024;8.630;2022-09-29T08:54:30;100166.19;;;10.14
27715;BMP280;16051;53.024;8.630;2022-09-29T08:58:38;100165.72;;;10.16
27715;BMP280;16051;53.024;8.630;2022-09-29T09:07:34;100161.38;;;10.50
27715;BMP280;16051;53.024;8.630;2022-09-29T09:12:03;100160.66;;;10.75
27715;BMP280;16051;53.024;8.630;2022-09-29T09:16:23;100159.59;;;10.93
27715;BMP280;16051;53.024;8.630;2022-09-29T09:20:33;100168.63;;;11.13
27715;BMP280;16051;53.024;8.630;2022-09-29T09:24:46;100162.47;;;11.29
27715;BMP280;16051;53.024;8.630;2022-09-29T09:28:54;100165.28;;;11.61
27715;BMP280;16051;53.024;8.630;2022-09-29T09:33:04;100156.00;;;11.69
27715;BMP280;16051;53.024;8.630;2022-09-29T09:37:14;100163.72;;;11.86
27715;BMP280;16051;53.024;8.630;2022-09-29T09:41:24;100161.72;;;11.92
27715;BMP280;16051;53.024;8.630;2022-09-29T09:45:33;100156.34;;;12.14
27715;BMP280;16051;53.024;8.630;2022-09-29T09:49:44;100174.78;;;12.33
27715;BMP280;16051;53.024;8.630;2022-09-29T09:53:49;100168.84;;;12.52
27715;BMP280;16051;53.024;8.630;2022-09-29T10:02:46;100170.94;;;12.73
27715;BMP280;16051;53.024;8.630;2022-09-29T10:06:51;100175.63;;;13.21
27715;BMP280;16051;53.024;8.630;2022-09-29T10:10:53;100179.69;;;13.37
27715;BMP280;16051;53.024;8.630;2022-09-29T10:15:00;100178.94;;;13.69
27715;BMP280;16051;53.024;8.630;2022-09-29T10:19:04;100181.44;;;13.95
27715;BMP280;16051;53.024;8.630;2022-09-29T10:28:14;100175.88;;;13.84
27715;BMP280;16051;53.024;8.630;2022-09-29T10:32:26;100190.34;;;14.62
27715;BMP280;16051;53.024;8.630;2022-09-29T10:36:50;100184.53;;;15.53
27715;BMP280;16051;53.024;8.630;2022-09-29T10:40:57;100179.31;;;16.47
27715;BMP280;16051;53.024;8.630;2022-09-29T10:45:12;100172.03;;;17.18
27715;BMP280;16051;53.024;8.630;2022-09-29T10:49:17;100180.19;;;17.48
27715;BMP280;16051;53.024;8.630;2022-09-29T10:53:29;100186.84;;;17.64
27715;BMP280;16051;53.024;8.630;2022-09-29T10:57:38;100190.88;;;16.75
27715;BMP280;16051;53.024;8.630;2022-09-29T11:01:47;100186.69;;;16.44
27715;BMP280;16051;53.024;8.630;2022-09-29T11:06:01;100193.94;;;16.29
27715;BMP280;16051;53.024;8.630;2022-09-29T11:10:26;100184.59;;;16.26
27715;BMP280;16051;53.024;8.630;2022-09-29T11:14:31;100193.78;;;16.88
27715;BMP280;16051;53.024;8.630;2022-09-29T11:18:53;100181.06;;;17.43
27715;BMP280;16051;53.024;8.630;2022-09-29T11:23:30;100189.06;;;18.24
27715;BMP280;16051;53.024;8.630;2022-09-29T11:27:51;100192.31;;;18.41
27715;BMP280;16051;53.024;8.630;2022-09-29T11:32:31;100204.16;;;18.73
27715;BMP280;16051;53.024;8.630;2022-09-29T11:36:51;100203.34;;;18.99
27715;BMP280;16051;53.024;8.630;2022-09-29T11:41:17;100208.50;;;19.29
27715;BMP280;16051;53.024;8.630;2022-09-29T11:45:37;100205.81;;;18.89
27715;BMP280;16051;53.024;8.630;2022-09-29T11:50:13;100205.09;;;18.76
27715;BMP280;16051;53.024;8.630;2022-09-29T11:54:42;100207.13;;;18.88
27715;BMP280;16051;53.024;8.630;2022-09-29T11:59:09;100215.03;;;17.92
27715;BMP280;16051;53.024;8.630;2022-09-29T12:03:39;100215.75;;;17.29
27715;BMP280;16051;53.024;8.630;2022-09-29T12:07:55;100212.84;;;17.21
27715;BMP280;16051;53.024;8.630;2022-09-29T12:12:12;100216.75;;;17.82
27715;BMP280;16051;53.024;8.630;2022-09-29T12:16:21;100223.06;;;18.67
27715;BMP280;16051;53.024;8.630;2022-09-29T12:20:29;100210.69;;;19.23
27715;BMP280;16051;53.024;8.630;2022-09-29T12:24:36;100221.19;;;19.43
27715;BMP280;16051;53.024;8.630;2022-09-29T12:28:47;100222.91;;;19.46
27715;BMP280;16051;53.024;8.630;2022-09-29T12:32:57;100224.41;;;19.47
27715;BMP280;16051;53.024;8.630;2022-09-29T12:37:08;100224.72;;;19.77
27715;BMP280;16051;53.024;8.630;2022-09-29T12:41:20;100226.69;;;19.69
27715;BMP280;16051;53.024;8.630;2022-09-29T12:45:58;100223.00;;;19.06
27715;BMP280;16051;53.024;8.630;2022-09-29T12:50:09;100214.50;;;19.12
27715;BMP280;16051;53.024;8.630;2022-09-29T12:54:39;100214.88;;;19.29
27715;BMP280;16051;53.024;8.630;2022-09-29T12:58:49;100211.16;;;19.13
27715;BMP280;16051;53.024;8.630;2022-09-29T13:13:29;100224.94;;;17.93
27715;BMP280;16051;53.024;8.630;2022-09-29T13:17:56;100226.69;;;17.64
27715;BMP280;16051;53.024;8.630;2022-09-29T13:22:47;100231.00;;;17.47
27715;BMP280;16051;53.024;8.630;2022-09-29T13:27:28;100235.72;;;17.52
27715;BMP280;16051;53.024;8.630;2022-09-29T13:31:37;100232.56;;;17.42
27715;BMP280;16051;53.024;8.630;2022-09-29T13:35:43;100235.19;;;17.53
27715;BMP280;16051;53.024;8.630;2022-09-29T13:39:56;100232.88;;;17.57
27715;BMP280;16051;53.024;8.630;2022-09-29T13:48:49;100242.97;;;16.86
27715;BMP280;16051;53.024;8.630;2022-09-29T13:52:52;100240.75;;;16.60
27715;BMP280;16051;53.024;8.630;2022-09-29T13:57:20;100245.59;;;16.54
27715;BMP280;16051;53.024;8.630;2022-09-29T14:01:30;100248.63;;;16.32
27715;BMP280;16051;53.024;8.630;2022-09-29T14:05:41;100248.78;;;16.15
27715;BMP280;16051;53.024;8.630;2022-09-29T14:09:47;100237.19;;;16.11
27715;BMP280;16051;53.024;8.630;2022-09-29T14:14:04;100244.75;;;16.16
27715;BMP280;16051;53.024;8.630;2022-09-29T14:18:19;100246.50;;;16.13
27715;BMP280;16051;53.024;8.630;2022-09-29T14:23:05;100231.16;;;16.31
27715;BMP280;16051;53.024;8.630;2022-09-29T14:27:30;100240.22;;;16.37
27715;BMP280;16051;53.024;8.630;2022-09-29T14:31:34;100244.28;;;16.36
27715;BMP280;16051;53.024;8.630;2022-09-29T14:35:38;100250.25;;;16.21
27715;BMP280;16051;53.024;8.630;2022-09-29T14:39:41;100246.69;;;16.21
27715;BMP280;16051;53.024;8.630;2022-09-29T14:44:10;100255.69;;;16.08
27715;BMP280;16051;53.024;8.630;2022-09-29T14:48:25;100263.22;;;16.13
27715;BMP280;16051;53.024;8.630;2022-09-29T14:53:05;100264.66;;;15.96
27715;BMP280;16051;53.024;8.630;2022-09-29T14:57:27;100272.34;;;15.84
27715;BMP280;16051;53.024;8.630;2022-09-29T15:06:28;100280.66;;;15.54
27715;BMP280;16051;53.024;8.630;2022-09-29T15:10:38;100280.41;;;15.52
27715;BMP280;16051;53.024;8.630;2022-09-29T15:14:41;100279.44;;;15.44
27715;BMP280;16051;53.024;8.630;2022-09-29T15:19:08;100279.44;;;15.39
27715;BMP280;16051;53.024;8.630;2022-09-29T15:23:47;100287.63;;;15.20
27715;BMP280;16051;53.024;8.630;2022-09-29T15:27:54;100295.75;;;15.12
27715;BMP280;16051;53.024;8.630;2022-09-29T15:31:57;100294.78;;;15.10
27715;BMP280;16051;53.024;8.630;2022-09-29T15:36:34;100284.94;;;14.98
27715;BMP280;16051;53.024;8.630;2022-09-29T15:40:38;100293.56;;;14.94
27715;BMP280;16051;53.024;8.630;2022-09-29T15:44:46;100302.44;;;14.93
27715;BMP280;16051;53.024;8.630;2022-09-29T15:49:21;100296.88;;;14.87
27715;BMP280;16051;53.024;8.630;2022-09-29T15:53:25;100308.03;;;14.76
27715;BMP280;16051;53.024;8.630;2022-09-29T15:58:00;100317.16;;;14.54
27715;BMP280;16051;53.024;8.630;2022-09-29T16:02:05;100322.25;;;14.28
27715;BMP280;16051;53.024;8.630;2022-09-29T16:06:18;100329.31;;;14.07
27715;BMP280;16051;53.024;8.630;2022-09-29T16:10:27;100333.31;;;13.84
27715;BMP280;16051;53.024;8.630;2022-09-29T16:14:43;100341.38;;;13.70
27715;BMP280;16051;53.024;8.630;2022-09-29T16:18:48;100339.09;;;13.63
27715;BMP280;16051;53.024;8.630;2022-09-29T16:22:53;100352.47;;;13.65
27715;BMP280;16051;53.024;8.630;2022-09-29T16:26:57;100361.53;;;13.60
27715;BMP280;16051;53.024;8.630;2022-09-29T16:31:03;100372.81;;;13.40
27715;BMP280;16051;53.024;8.630;2022-09-29T16:35:56;100381.59;;;13.32
27715;BMP280;16051;53.024;8.630;2022-09-29T16:40:00;100386.88;;;13.25
27715;BMP280;16051;53.024;8.630;2022-09-29T16:44:12;100383.09;;;13.28
27715;BMP280;16051;53.024;8.630;2022-09-29T16:48:18;100391.13;;;13.20
27715;BMP280;16051;53.024;8.630;2022-09-29T16:52:51;100389.63;;;13.19
27715;BMP280;16051;53.024;8.630;2022-09-29T16:57:19;100398.94;;;13.16
27715;BMP280;16051;53.024;8.630;2022-09-29T17:01:22;100404.19;;;13.14
27715;BMP280;16051;53.024;8.630;2022-09-29T17:05:26;100404.19;;;13.14
27715;BMP280;16051;53.024;8.630;2022-09-29T17:09:30;100405.97;;;13.17
27715;BMP280;16051;53.024;8.630;2022-09-29T17:13:34;100414.28;;;13.12
27715;BMP280;16051;53.024;8.630;2022-09-29T17:17:37;100417.22;;;13.03
27715;BMP280;16051;53.024;8.630;2022-09-29T17:21:44;100416.41;;;12.97
27715;BMP280;16051;53.024;8.630;2022-09-29T17:25:47;100421.19;;;12.96
27715;BMP280;16051;53.024;8.630;2022-09-29T17:29:50;100415.94;;;12.98
27715;BMP280;16051;53.024;8.630;2022-09-29T17:33:52;100419.44;;;12.93
27715;BMP280;16051;53.024;8.630;2022-09-29T17:37:56;100426.13;;;12.81
27715;BMP280;16051;53.024;8.630;2022-09-29T17:41:58;100427.34;;;12.74
27715;BMP280;16051;53.024;8.630;2022-09-29T17:46:00;100423.81;;;12.74
27715;BMP280;16051;53.024;8.630;2022-09-29T17:50:19;100430.63;;;12.73
27715;BMP280;16051;53.024;8.630;2022-09-29T17:54:24;100427.59;;;12.71
27715;BMP280;16051;53.024;8.630;2022-09-29T17:59:03;100431.34;;;12.68
27715;BMP280;16051;53.024;8.630;2022-09-29T18:03:07;100437.38;;;12.66
27715;BMP280;16051;53.024;8.630;2022-09-29T18:07:11;100442.41;;;12.62
27715;BMP280;16051;53.024;8.630;2022-09-29T18:11:15;100449.88;;;12.56
27715;BMP280;16051;53.024;8.630;2022-09-29T18:15:17;100444.41;;;12.62
27715;BMP280;16051;53.024;8.630;2022-09-29T18:19:19;100454.34;;;12.48
27715;BMP280;16051;53.024;8.630;2022-09-29T18:28:35;100452.72;;;12.36
27715;BMP280;16051;53.024;8.630;2022-09-29T18:32:38;100454.16;;;12.26
27715;BMP280;16051;53.024;8.630;2022-09-29T18:36:41;100451.81;;;12.19
27715;BMP280;16051;53.024;8.630;2022-09-29T18:41:05;100457.56;;;12.15
27715;BMP280;16051;53.024;8.630;2022-09-29T18:45:14;100455.28;;;12.14
27715;BMP280;16051;53.024;8.630;2022-09-29T18:49:17;100463.47;;;12.03
27715;BMP280;16051;53.024;8.630;2022-09-29T18:53:21;100469.97;;;12.00
27715;BMP280;16051;53.024;8.630;2022-09-29T18:57:23;100477.31;;;12.03
27715;BMP280;16051;53.024;8.630;2022-09-29T19:01:26;100474.06;;;12.04
27715;BMP280;16051;53.024;8.630;2022-09-29T19:05:32;100475.22;;;11.98
27715;BMP280;16051;53.024;8.630;2022-09-29T19:09:34;100483.59;;;12.03
27715;BMP280;16051;53.024;8.630;2022-09-29T19:13:49;100485.06;;;11.99
27715;BMP280;16051;53.024;8.630;2022-09-29T19:17:54;100489.06;;;11.98
27715;BMP280;16051;53.024;8.630;2022-09-29T19:21:57;100494.88;;;12.00
27715;BMP280;16051;53.024;8.630;2022-09-29T19:26:10;100509.50;;;12.00
27715;BMP280;16051;53.024;8.630;2022-09-29T19:30:19;100514.06;;;12.03
27715;BMP280;16051;53.024;8.630;2022-09-29T19:34:23;100515.03;;;12.00
27715;BMP280;16051;53.024;8.630;2022-09-29T19:38:25;100515.50;;;11.99
27715;BMP280;16051;53.024;8.630;2022-09-29T19:42:27;100518.47;;;11.95
27715;BMP280;16051;53.024;8.630;2022-09-29T19:46:30;100529.19;;;11.88
27715;BMP280;16051;53.024;8.630;2022-09-29T19:50:34;100529.50;;;11.90
27715;BMP280;16051;53.024;8.630;2022-09-29T19:54:53;100531.97;;;11.88
27715;BMP280;16051;53.024;8.630;2022-09-29T19:58:55;100535.03;;;11.90
27715;BMP280;16051;53.024;8.630;2022-09-29T20:02:57;100537.03;;;11.89
27715;BMP280;16051;53.024;8.630;2022-09-29T20:07:02;100550.38;;;11.91
27715;BMP280;16051;53.024;8.630;2022-09-29T20:11:07;100558.66;;;11.91
27715;BMP280;16051;53.024;8.630;2022-09-29T20:15:10;100566.63;;;11.83
27715;BMP280;16051;53.024;8.630;2022-09-29T20:19:15;100556.72;;;11.76
27715;BMP280;16051;53.024;8.630;2022-09-29T20:23:19;100560.47;;;11.73
27715;BMP280;16051;53.024;8.630;2022-09-29T20:27:24;100567.72;;;11.71
27715;BMP280;16051;53.024;8.630;2022-09-29T20:31:26;100568.94;;;11.70
27715;BMP280;16051;53.024;8.630;2022-09-29T20:35:29;100580.75;;;11.70
27715;BMP280;16051;53.024;8.630;2022-09-29T20:39:34;100572.09;;;11.63
27715;BMP280;16051;53.024;8.630;2022-09-29T20:43:37;100580.13;;;11.61
27715;BMP280;16051;53.024;8.630;2022-09-29T20:47:39;100584.34;;;11.56
27715;BMP280;16051;53.024;8.630;2022-09-29T20:51:41;100586.81;;;11.54
27715;BMP280;16051;53.024;8.630;2022-09-29T20:55:58;100585.78;;;11.52
27715;BMP280;16051;53.024;8.630;2022-09-29T21:00:01;100591.31;;;11.52
27715;BMP280;16051;53.024;8.630;2022-09-29T21:04:08;100587.56;;;11.55
27715;BMP280;16051;53.024;8.630;2022-09-29T21:08:10;100586.81;;;11.54
27715;BMP280;16051;53.024;8.630;2022-09-29T21:12:15;100608.94;;;11.54
27715;BMP280;16051;53.024;8.630;2022-09-29T21:16:18;100602.09;;;11.50
27715;BMP280;16051;53.024;8.630;2022-09-29T21:20:20;100607.13;;;11.51
27715;BMP280;16051;53.024;8.630;2022-09-29T21:24:23;100612.84;;;11.48
27715;BMP280;16051;53.024;8.630;2022-09-29T21:28:26;100617.44;;;11.51
27715;BMP280;16051;53.024;8.630;2022-09-29T21:32:28;100616.13;;;11.46
27715;BMP280;16051;53.024;8.630;2022-09-29T21:36:35;100617.81;;;11.44
27715;BMP280;16051;53.024;8.630;2022-09-29T21:40:37;100621.16;;;11.48
27715;BMP280;16051;53.024;8.630;2022-09-29T21:44:41;100624.41;;;11.46
27715;BMP280;16051;53.024;8.630;2022-09-29T21:48:44;100629.66;;;11.44
27715;BMP280;16051;53.024;8.630;2022-09-29T21:52:46;100631.66;;;11.44
27715;BMP280;16051;53.024;8.630;2022-09-29T21:56:55;100642.44;;;11.42
27715;BMP280;16051;53.024;8.630;2022-09-29T22:00:59;100635.38;;;11.41
27715;BMP280;16051;53.024;8.630;2022-09-29T22:05:01;100641.66;;;11.41
27715;BMP280;16051;53.024;8.630;2022-09-29T22:09:05;100638.13;;;11.41
27715;BMP280;16051;53.024;8.630;2022-09-29T22:13:08;100635.09;;;11.39
27715;BMP280;16051;53.024;8.630;2022-09-29T22:17:23;100642.13;;;11.40
27715;BMP280;16051;53.024;8.630;2022-09-29T22:21:26;100643.19;;;11.42
27715;BMP280;16051;53.024;8.630;2022-09-29T22:25:29;100639.38;;;11.40
27715;BMP280;16051;53.024;8.630;2022-09-29T22:29:31;100641.66;;;11.41
27715;BMP280;16051;53.024;8.630;2022-09-29T22:33:36;100651.19;;;11.40
27715;BMP280;16051;53.024;8.630;2022-09-29T22:37:39;100643.59;;;11.35
27715;BMP280;16051;53.024;8.630;2022-09-29T22:41:41;100641.28;;;11.33
27715;BMP280;16051;53.024;8.630;2022-09-29T22:45:46;100645.50;;;11.29
27715;BMP280;16051;53.024;8.630;2022-09-29T22:49:50;100644.94;;;11.25
27715;BMP280;16051;53.024;8.630;2022-09-29T22:53:52;100647.41;;;11.23
27715;BMP280;16051;53.024;8.630;2022-09-29T22:57:56;100651.13;;;11.20
27715;BMP280;16051;53.024;8.630;2022-09-29T23:01:58;100643.78;;;11.17
27715;BMP280;16051;53.024;8.630;2022-09-29T23:06:33;100651.50;;;11.13
27715;BMP280;16051;53.024;8.630;2022-09-29T23:10:36;100658.00;;;11.10
27715;BMP280;16051;53.024;8.630;2022-09-29T23:14:38;100646.06;;;11.04
27715;BMP280;16051;53.024;8.630;2022-09-29T23:18:42;100661.31;;;10.99
27715;BMP280;16051;53.024;8.630;2022-09-29T23:22:46;100663.50;;;10.95
27715;BMP280;16051;53.024;8.630;2022-09-29T23:26:48;100668.91;;;10.90
27715;BMP280;16051;53.024;8.630;2022-09-29T23:30:51;100666.16;;;10.90
27715;BMP280;16051;53.024;8.630;2022-09-29T23:34:54;100665.03;;;10.81
27715;BMP280;16051;53.024;8.630;2022-09-29T23:38:57;100664.13;;;10.75
27715;BMP280;16051;53.024;8.630;2022-09-29T23:43:13;100657.56;;;10.73
27715;BMP280;16051;53.024;8.630;2022-09-29T23:47:15;100662.22;;;10.67
27715;BMP280;16051;53.024;8.630;2022-09-29T23:51:17;100663.81;;;10.59
27715;BMP280;16051;53.024;8.630;2022-09-29T23:55:21;100664.94;;;10.52
27715;BMP280;16051;53.024;8.630;2022-09-29T23:59:23;100662.06;;;10.47
